Time;durP1;ratioP1;P1;durP2;ratioP2;P2;SDS_P1;SDS_P2;PMS_P1;PMS_P2;Temp;Humidity;BMP_temperature;BMP_pressure;BME280_temperature;BME280_humidity;BME280_pressure;Samples;Min_cycle;Max_cycle;Signal;HPM_P1;HPM_P2
2023/08/16 00:01:23;;;;;;;7.13;3.27;;;;;;;20.02;86.76;101700.84;4978984;28;20045;-90
2023/08/16 00:03:48;;;;;;;7.20;3.75;;;;;;;20.02;85.31;101697.22;4961207;28;20031;-90
2023/08/16 00:06:14;;;;;;;8.10;3.73;;;;;;;19.97;85.24;101696.09;4978621;28;20106;-90
2023/08/16 00:08:40;;;;;;;7.95;3.60;;;;;;;19.93;85.40;101694.09;4960951;28;20058;-89
2023/08/16 00:11:06;;;;;;;8.37;3.50;;;;;;;19.86;86.28;101713.59;4978252;28;20030;-90
2023/08/16 00:13:32;;;;;;;5.93;3.25;;;;;;;19.86;86.90;101712.75;4961026;28;20458;-90
2023/08/16 00:15:59;;;;;;;9.80;3.75;;;;;;;19.88;88.12;101708.66;4978026;28;20391;-89
2023/08/16 00:18:25;;;;;;;5.25;3.15;;;;;;;19.84;87.89;101704.72;4960489;28;20066;-90
2023/08/16 00:20:50;;;;;;;6.27;3.10;;;;;;;19.76;87.87;101713.44;4977831;28;20034;-90
2023/08/16 00:23:16;;;;;;;6.43;3.30;;;;;;;19.73;87.88;101708.44;4960729;28;20027;-90
2023/08/16 00:25:41;;;;;;;6.05;3.10;;;;;;;19.69;88.38;101707.28;4960917;28;20031;-90
2023/08/16 00:28:07;;;;;;;6.90;3.10;;;;;;;19.62;88.48;101708.31;4960641;28;20089;-90
2023/08/16 00:30:34;;;;;;;6.47;3.17;;;;;;;19.58;88.89;101707.16;4960909;28;20041;-90
2023/08/16 00:33:00;;;;;;;7.22;3.20;;;;;;;19.54;88.92;101705.97;4960660;28;20062;-90
2023/08/16 00:35:27;;;;;;;8.10;3.50;;;;;;;19.51;89.58;101708.44;4978157;28;20062;-89
2023/08/16 00:37:53;;;;;;;5.22;3.33;;;;;;;19.44;90.10;101703.94;4944203;28;20431;-90
2023/08/16 00:40:20;;;;;;;7.23;3.40;;;;;;;19.40;90.46;101716.53;4944782;28;20031;-90
2023/08/16 00:42:48;;;;;;;7.20;3.70;;;;;;;19.32;90.62;101708.72;4978368;28;20035;-89
2023/08/16 00:45:14;;;;;;;6.28;3.50;;;;;;;19.27;91.67;101720.47;4960538;28;20030;-90
2023/08/16 00:47:39;;;;;;;8.07;3.47;;;;;;;19.20;92.46;101719.00;4960197;28;20026;-90
2023/08/16 00:50:08;;;;;;;8.38;4.03;;;;;;;19.13;93.91;101721.09;4960724;28;20456;-90
2023/08/16 00:52:36;;;;;;;7.23;4.07;;;;;;;19.02;95.18;101729.19;4960156;28;20034;-90
2023/08/16 00:55:02;;;;;;;8.25;4.55;;;;;;;18.99;95.80;101728.84;4960300;28;20038;-90
2023/08/16 00:57:29;;;;;;;10.70;4.47;;;;;;;18.92;96.84;101729.00;4977640;28;20049;-90
2023/08/16 00:59:55;;;;;;;8.68;4.22;;;;;;;18.91;97.08;101730.94;4977311;28;20463;-89
2023/08/16 01:02:20;;;;;;;8.37;4.20;;;;;;;18.87;98.20;101731.69;4943818;28;20030;-90
2023/08/16 01:04:47;;;;;;;7.80;4.27;;;;;;;18.87;98.37;101732.50;4960379;28;20034;-89
2023/08/16 01:07:12;;;;;;;6.67;4.00;;;;;;;18.88;98.73;101736.09;4959516;28;20325;-90
2023/08/16 01:09:38;;;;;;;12.57;4.55;;;;;;;18.92;99.56;101738.09;4960589;28;20039;-90
2023/08/16 01:12:30;;;;;;;9.30;3.97;;;;;;;18.96;98.21;101741.19;4959976;28;20472;-90
2023/08/16 01:15:03;;;;;;;6.53;4.28;;;;;;;18.92;98.80;101742.75;4977362;28;20031;-90
2023/08/16 01:17:32;;;;;;;8.05;4.35;;;;;;;18.83;99.05;101736.00;4959889;28;20034;-90
2023/08/16 01:19:58;;;;;;;6.47;4.47;;;;;;;18.82;99.90;101742.56;4977666;28;20081;-90
2023/08/16 01:22:50;;;;;;;6.03;4.03;;;;;;;18.82;99.08;101751.63;4959771;28;20041;-89
2023/08/16 01:25:28;;;;;;;7.80;4.40;;;;;;;18.76;100.00;101747.13;4976868;28;20026;-89
2023/08/16 01:27:55;;;;;;;6.55;4.93;;;;;;;18.71;100.00;101753.38;4959776;28;20039;-89
2023/08/16 01:30:21;;;;;;;8.93;4.25;;;;;;;18.74;100.00;101749.31;4959216;28;20051;-89
2023/08/16 01:32:49;;;;;;;8.52;4.53;;;;;;;18.68;99.39;101753.06;4959162;28;20031;-90
2023/08/16 01:35:15;;;;;;;7.10;4.63;;;;;;;18.67;99.01;101757.69;4959499;28;20031;-89
2023/08/16 01:37:42;;;;;;;10.30;4.70;;;;;;;18.65;99.99;101761.81;4976792;28;20082;-89
2023/08/16 01:40:11;;;;;;;12.52;5.07;;;;;;;18.65;99.91;101765.38;4959458;28;20169;-89
2023/08/16 01:42:42;;;;;;;7.70;4.60;;;;;;;18.65;100.00;101761.81;4943873;28;20379;-89
2023/08/16 01:45:09;;;;;;;7.53;4.68;;;;;;;18.67;100.00;101765.13;4959688;28;20539;-89
2023/08/16 01:47:36;;;;;;;6.23;4.63;;;;;;;18.63;100.00;101756.56;4959127;28;20031;-90
2023/08/16 01:50:03;;;;;;;8.15;4.55;;;;;;;18.60;100.00;101751.53;4959575;28;20031;-89
2023/08/16 01:52:29;;;;;;;6.20;4.28;;;;;;;18.59;100.00;101752.63;4976651;28;20023;-90
2023/08/16 01:54:54;;;;;;;6.60;4.40;;;;;;;18.57;100.00;101749.28;4959281;28;20049;-89
2023/08/16 01:57:20;;;;;;;8.33;5.10;;;;;;;18.55;100.00;101757.75;4976866;28;20054;-90
2023/08/16 01:59:48;;;;;;;6.45;4.53;;;;;;;18.55;100.00;101759.69;4959372;28;20533;-89
2023/08/16 02:02:13;;;;;;;10.93;4.82;;;;;;;18.54;100.00;101752.50;4959030;28;20066;-90
2023/08/16 02:04:39;;;;;;;10.27;4.53;;;;;;;18.51;100.00;101759.34;4959124;28;20116;-90
2023/08/16 02:07:04;;;;;;;10.57;4.57;;;;;;;18.54;100.00;101758.00;4976345;28;20487;-89
2023/08/16 02:09:30;;;;;;;9.53;4.77;;;;;;;18.47;100.00;101763.69;4943274;28;20290;-89
2023/08/16 02:11:55;;;;;;;9.33;4.97;;;;;;;18.41;100.00;101761.91;4959292;28;20038;-90
2023/08/16 02:14:21;;;;;;;8.33;4.70;;;;;;;18.35;100.00;101763.72;4959826;28;20486;-89
2023/08/16 02:16:49;;;;;;;9.43;4.77;;;;;;;18.26;100.00;101767.94;4976341;28;20739;-89
2023/08/16 02:19:15;;;;;;;7.70;4.37;;;;;;;18.19;100.00;101761.78;4975029;28;20325;-89
2023/08/16 02:21:40;;;;;;;11.10;4.82;;;;;;;18.19;100.00;101772.75;4958599;28;20031;-89
2023/08/16 02:24:06;;;;;;;9.10;4.37;;;;;;;18.22;100.00;101764.03;4958394;28;20066;-89
2023/08/16 02:26:32;;;;;;;7.80;5.28;;;;;;;18.22;100.00;101770.34;4958307;28;20069;-89
2023/08/16 02:28:57;;;;;;;9.40;5.03;;;;;;;18.21;100.00;101771.41;4975714;28;20141;-89
2023/08/16 02:31:23;;;;;;;10.10;4.80;;;;;;;18.24;100.00;101770.91;4975624;28;20027;-90
2023/08/16 02:33:49;;;;;;;9.02;5.10;;;;;;;18.21;100.00;101763.16;4958493;28;20057;-89
2023/08/16 02:36:14;;;;;;;7.30;4.80;;;;;;;18.28;100.00;101770.41;4958342;28;20388;-89
2023/08/16 02:38:39;;;;;;;8.83;5.00;;;;;;;18.26;100.00;101759.69;4958476;28;20092;-89
2023/08/16 02:41:05;;;;;;;15.23;5.60;;;;;;;18.27;100.00;101758.63;4975651;28;20038;-89
2023/08/16 02:43:39;;;;;;;7.87;5.30;;;;;;;18.27;100.00;101755.88;4958835;28;20419;-89
2023/08/16 02:46:05;;;;;;;9.00;5.53;;;;;;;18.24;100.00;101750.88;4943740;28;20034;-89
2023/08/16 02:48:30;;;;;;;11.70;5.97;;;;;;;18.19;100.00;101745.28;4958133;28;20034;-89
2023/08/16 02:50:56;;;;;;;7.53;5.57;;;;;;;18.12;100.00;101745.41;4958620;28;20122;-89
2023/08/16 02:53:21;;;;;;;9.00;5.47;;;;;;;18.03;100.00;101752.38;4958052;28;20057;-89
2023/08/16 02:55:46;;;;;;;9.97;5.73;;;;;;;18.00;100.00;101752.88;4958051;28;20066;-89
2023/08/16 02:58:12;;;;;;;10.00;5.63;;;;;;;17.98;100.00;101755.00;4975723;28;20054;-89
2023/08/16 03:00:38;;;;;;;8.90;5.50;;;;;;;17.95;100.00;101758.25;4958079;28;20190;-89
2023/08/16 03:03:04;;;;;;;8.40;5.67;;;;;;;17.92;100.00;101762.28;4941991;28;20034;-90
2023/08/16 03:05:29;;;;;;;8.90;5.75;;;;;;;17.93;100.00;101758.47;4975395;28;20031;-89
2023/08/16 03:07:55;;;;;;;12.57;5.77;;;;;;;17.97;100.00;101756.09;4957800;28;20027;-89
2023/08/16 03:10:20;;;;;;;8.93;5.90;;;;;;;18.01;100.00;101763.59;4957629;28;20031;-89
2023/08/16 03:12:46;;;;;;;10.27;5.97;;;;;;;18.04;100.00;101757.63;4958205;28;20027;-90
2023/08/16 03:15:11;;;;;;;11.50;5.88;;;;;;;18.06;100.00;101760.94;4957979;28;20054;-89
2023/08/16 03:17:37;;;;;;;10.47;5.93;;;;;;;18.08;100.00;101765.38;4941661;28;20467;-90
2023/08/16 03:20:03;;;;;;;10.55;5.55;;;;;;;18.09;100.00;101756.91;4941939;28;20043;-89
2023/08/16 03:22:31;;;;;;;9.17;5.60;;;;;;;18.13;100.00;101773.69;4975140;28;20106;-90
2023/08/16 03:24:57;;;;;;;12.32;5.60;;;;;;;18.10;100.00;101763.22;4957719;28;20039;-89
2023/08/16 03:27:22;;;;;;;11.03;6.10;;;;;;;18.12;100.00;101766.56;4958007;28;20029;-89
2023/08/16 03:29:47;;;;;;;9.30;5.60;;;;;;;18.13;100.00;101757.22;4974995;28;20051;-90
2023/08/16 03:32:13;;;;;;;9.40;6.70;;;;;;;18.10;100.00;101752.22;4941892;28;20130;-89
2023/08/16 03:34:38;;;;;;;8.43;6.20;;;;;;;18.12;100.00;101755.56;4975315;28;20031;-89
2023/08/16 03:37:06;;;;;;;11.30;6.20;;;;;;;18.05;100.00;101761.19;4957282;28;20023;-89
2023/08/16 03:39:32;;;;;;;9.05;6.22;;;;;;;18.04;100.00;101768.63;4957638;28;20062;-89
2023/08/16 03:42:00;;;;;;;11.17;6.30;;;;;;;18.02;100.00;101773.50;4957675;28;20542;-89
2023/08/16 03:44:25;;;;;;;10.15;7.20;;;;;;;18.00;100.00;101775.66;4957141;28;20059;-89
2023/08/16 03:46:51;;;;;;;10.17;6.23;;;;;;;17.97;100.00;101773.41;4957689;28;20464;-89
2023/08/16 03:49:16;;;;;;;10.18;6.85;;;;;;;17.94;100.00;101770.28;4974133;28;20106;-89
2023/08/16 03:51:44;;;;;;;9.13;6.37;;;;;;;17.90;100.00;101769.13;4974933;28;20030;-89
2023/08/16 03:54:09;;;;;;;10.60;6.70;;;;;;;17.82;100.00;101771.13;4975199;28;20109;-89
2023/08/16 03:56:36;;;;;;;8.67;6.43;;;;;;;17.76;100.00;101783.09;4957649;28;20150;-90
2023/08/16 03:59:01;;;;;;;11.00;6.97;;;;;;;17.68;100.00;101789.75;4957466;28;20030;-89
2023/08/16 04:01:27;;;;;;;11.50;6.83;;;;;;;17.67;100.00;101793.59;4957453;28;20043;-89
2023/08/16 04:03:52;;;;;;;14.33;7.07;;;;;;;17.61;100.00;101790.97;4974748;28;20031;-89
2023/08/16 04:06:20;;;;;;;10.98;6.85;;;;;;;17.59;100.00;101782.16;4941506;28;20468;-89
2023/08/16 04:08:46;;;;;;;10.63;7.10;;;;;;;17.54;100.00;101791.94;4941809;28;20037;-89
2023/08/16 04:11:16;;;;;;;12.27;7.57;;;;;;;17.48;100.00;101789.28;4974709;28;20035;-89
2023/08/16 04:13:42;;;;;;;10.55;7.95;;;;;;;17.38;100.00;101789.06;4975229;28;20127;-89
2023/08/16 04:16:07;;;;;;;12.97;7.87;;;;;;;17.33;100.00;101793.38;4941228;28;20160;-89
2023/08/16 04:18:33;;;;;;;13.13;8.27;;;;;;;17.30;100.00;101799.31;4957015;28;20122;-89
2023/08/16 04:20:58;;;;;;;14.73;7.97;;;;;;;17.28;100.00;101792.41;4957423;28;20035;-89
2023/08/16 04:23:24;;;;;;;12.73;8.68;;;;;;;17.30;100.00;101793.00;4974148;28;20031;-89
2023/08/16 04:25:49;;;;;;;12.83;8.80;;;;;;;17.34;100.00;101803.25;4957125;28;20027;-89
2023/08/16 04:28:15;;;;;;;13.90;8.47;;;;;;;17.40;100.00;101795.16;4974231;28;20113;-89
2023/08/16 04:30:40;;;;;;;15.88;7.68;;;;;;;17.41;100.00;101799.56;4957572;28;20035;-89
2023/08/16 04:33:06;;;;;;;12.70;8.57;;;;;;;17.38;100.00;101800.88;4957152;28;20364;-89
2023/08/16 04:35:32;;;;;;;15.50;8.20;;;;;;;17.38;100.00;101800.88;4974728;28;20031;-90
2023/08/16 04:38:06;;;;;;;10.67;7.80;;;;;;;17.39;100.00;101796.22;4974753;28;20049;-90
2023/08/16 04:40:31;;;;;;;13.75;7.72;;;;;;;17.42;100.00;101790.25;4974373;28;20065;-89
2023/08/16 04:43:00;;;;;;;15.07;7.53;;;;;;;17.46;100.00;101780.47;4960288;28;20062;-89
2023/08/16 04:45:28;;;;;;;13.68;8.35;;;;;;;17.47;100.00;101791.22;4977637;28;20054;-90
2023/08/16 04:47:53;;;;;;;15.75;8.57;;;;;;;17.45;100.00;101790.63;4959811;28;20027;-89
2023/08/16 04:50:19;;;;;;;12.40;8.03;;;;;;;17.51;100.00;101797.91;4977590;28;20081;-90
2023/08/16 04:52:45;;;;;;;14.37;7.63;;;;;;;17.49;100.00;101793.72;4944537;28;20491;-89
2023/08/16 04:55:10;;;;;;;13.77;8.43;;;;;;;17.50;100.00;101798.13;4960375;28;20042;-89
2023/08/16 04:57:36;;;;;;;13.83;8.17;;;;;;;17.45;100.00;101796.13;4960077;28;20030;-89
2023/08/16 05:00:06;;;;;;;14.13;7.50;;;;;;;17.44;100.00;101790.88;4960275;28;20035;-90
2023/08/16 05:02:34;;;;;;;10.90;7.73;;;;;;;17.44;100.00;101810.88;4959990;28;20296;-90
2023/08/16 05:05:00;;;;;;;13.80;7.88;;;;;;;17.41;100.00;101805.88;4977601;28;20034;-90
2023/08/16 05:07:25;;;;;;;14.68;7.72;;;;;;;17.37;100.00;101796.44;4960345;28;20031;-90
2023/08/16 05:09:50;;;;;;;11.53;7.10;;;;;;;17.33;100.00;101798.84;4977262;28;20026;-90
2023/08/16 05:12:16;;;;;;;10.03;6.87;;;;;;;17.27;100.00;101798.94;4944091;28;20388;-89
2023/08/16 05:14:41;;;;;;;12.30;7.30;;;;;;;17.24;100.00;101804.91;4959920;28;20051;-89
2023/08/16 05:17:08;;;;;;;13.75;7.55;;;;;;;17.24;100.00;101805.72;4959903;28;20034;-90
2023/08/16 05:19:34;;;;;;;9.10;7.27;;;;;;;17.21;100.00;101819.09;4976957;28;20042;-89
2023/08/16 05:22:00;;;;;;;9.60;6.80;;;;;;;17.27;100.00;101823.63;4959366;28;20391;-89
2023/08/16 05:24:25;;;;;;;9.53;6.97;;;;;;;17.33;100.00;101819.94;4959450;28;20030;-89
2023/08/16 05:26:50;;;;;;;11.10;7.20;;;;;;;17.39;100.00;101823.66;4976834;28;20050;-90
2023/08/16 05:29:16;;;;;;;9.17;6.77;;;;;;;17.43;100.00;101822.94;4976797;28;20126;-90
2023/08/16 05:31:41;;;;;;;8.67;6.10;;;;;;;17.53;100.00;101823.16;4959784;28;20471;-85
2023/08/16 05:34:07;;;;;;;9.23;6.70;;;;;;;17.57;100.00;101831.78;4959711;28;20069;-85
2023/08/16 05:36:32;;;;;;;14.70;6.72;;;;;;;17.61;100.00;101826.63;4959493;28;20494;-86
2023/08/16 05:38:58;;;;;;;10.10;6.90;;;;;;;17.66;100.00;101822.09;4944376;28;20114;-86
2023/08/16 05:41:23;;;;;;;7.37;6.00;;;;;;;17.75;100.00;101828.06;4927438;28;20034;-88
2023/08/16 05:43:49;;;;;;;25.60;7.30;;;;;;;17.84;100.00;101831.28;4959692;28;20042;-83
2023/08/16 05:46:15;;;;;;;12.55;6.22;;;;;;;17.94;100.00;101833.44;4959814;28;20085;-85
2023/08/16 05:48:40;;;;;;;8.53;5.63;;;;;;;18.02;100.00;101841.31;4976604;28;20034;-85
2023/08/16 05:51:06;;;;;;;13.05;6.68;;;;;;;18.06;100.00;101840.59;4958352;28;20498;-86
2023/08/16 05:53:31;;;;;;;9.60;5.73;;;;;;;18.14;100.00;101850.34;4958581;28;20121;-86
2023/08/16 05:55:56;;;;;;;7.43;5.97;;;;;;;18.23;100.00;101853.56;4943902;28;20035;-86
2023/08/16 05:58:22;;;;;;;8.70;6.10;;;;;;;18.29;100.00;101851.75;4943132;28;20483;-87
2023/08/16 06:00:47;;;;;;;8.87;5.43;;;;;;;18.41;100.00;101866.31;4927255;28;20062;-85
2023/08/16 06:03:14;;;;;;;8.85;5.72;;;;;;;18.49;100.00;101857.69;4959022;28;20038;-85
2023/08/16 06:05:39;;;;;;;9.18;5.93;;;;;;;18.63;99.52;101857.38;4976177;28;20093;-85
2023/08/16 06:08:05;;;;;;;7.83;5.40;;;;;;;18.74;98.99;101859.25;4976102;28;20471;-85
2023/08/16 06:10:30;;;;;;;7.73;5.40;;;;;;;18.91;97.72;101845.56;4975882;28;20042;-84
2023/08/16 06:12:56;;;;;;;7.40;5.60;;;;;;;19.10;96.55;101848.94;4976071;28;20098;-85
2023/08/16 06:15:22;;;;;;;11.27;5.40;;;;;;;19.20;95.35;101848.28;4976031;28;20046;-86
2023/08/16 06:17:47;;;;;;;7.97;5.20;;;;;;;19.37;94.77;101845.53;4942656;28;20031;-88
2023/08/16 06:20:13;;;;;;;7.43;5.30;;;;;;;19.42;94.34;101845.63;4942433;28;20057;-87
2023/08/16 06:22:39;;;;;;;8.32;5.32;;;;;;;19.49;94.14;101848.19;4958480;28;20027;-84
2023/08/16 06:25:06;;;;;;;7.07;5.13;;;;;;;19.50;94.13;101847.13;4958668;28;20034;-85
2023/08/16 06:27:31;;;;;;;7.72;5.28;;;;;;;19.53;92.98;101843.84;4975835;28;20023;-86
2023/08/16 06:29:57;;;;;;;7.17;4.83;;;;;;;19.57;92.38;101845.03;4958579;28;20070;-85
2023/08/16 06:32:22;;;;;;;7.93;5.13;;;;;;;19.62;92.49;101842.34;4943079;28;20122;-86
2023/08/16 06:34:47;;;;;;;7.90;4.60;;;;;;;19.63;92.12;101844.00;4958548;28;20034;-86
2023/08/16 06:37:13;;;;;;;7.03;4.80;;;;;;;19.71;92.17;101848.25;4958251;28;20487;-87
2023/08/16 06:39:39;;;;;;;8.67;4.97;;;;;;;19.73;91.27;101846.91;4942408;28;20027;-88
2023/08/16 06:42:09;;;;;;;6.63;5.03;;;;;;;19.74;91.76;101856.84;4926669;28;20029;-88
2023/08/16 06:44:35;;;;;;;9.25;4.93;;;;;;;19.71;91.38;101842.75;4942865;28;20065;-88
2023/08/16 06:47:01;;;;;;;8.53;4.70;;;;;;;19.64;90.53;101845.69;4942811;28;20031;-88
2023/08/16 06:49:26;;;;;;;8.63;5.03;;;;;;;19.62;91.02;101839.59;4957884;28;20493;-88
2023/08/16 06:51:51;;;;;;;8.67;4.73;;;;;;;19.66;91.54;101846.25;4958118;28;20097;-88
2023/08/16 06:54:17;;;;;;;9.43;4.70;;;;;;;19.69;91.37;101851.25;4941636;28;20129;-89
2023/08/16 06:56:42;;;;;;;8.73;5.00;;;;;;;19.71;90.08;101864.78;4974847;28;20113;-88
2023/08/16 06:59:14;;;;;;;10.90;4.35;;;;;;;19.77;90.19;101855.53;4941857;28;20023;-89
2023/08/16 07:01:39;;;;;;;6.80;4.13;;;;;;;19.87;89.73;101863.13;4958474;28;20053;-88
2023/08/16 07:04:05;;;;;;;7.97;4.45;;;;;;;19.96;87.70;101867.09;4957440;28;20122;-89
2023/08/16 07:06:33;;;;;;;5.93;4.13;;;;;;;20.13;87.18;101867.88;4957911;28;20039;-89
2023/08/16 07:08:59;;;;;;;7.13;4.28;;;;;;;20.33;86.06;101864.56;4958620;28;20375;-89
2023/08/16 07:11:25;;;;;;;7.87;3.97;;;;;;;20.48;84.68;101869.44;4957576;28;20126;-88
2023/08/16 07:13:51;;;;;;;6.95;3.88;;;;;;;20.61;84.95;101856.34;4957547;28;20121;-89
2023/08/16 07:16:18;;;;;;;4.88;3.92;;;;;;;20.67;84.04;101855.34;4958536;28;20415;-88
2023/08/16 07:18:43;;;;;;;7.57;5.23;;;;;;;20.57;84.58;101849.69;4974535;28;20027;-89
2023/08/16 07:21:09;;;;;;;7.25;4.68;;;;;;;20.57;85.03;101849.69;4941814;28;20041;-88
2023/08/16 07:23:37;;;;;;;8.23;4.23;;;;;;;20.53;85.55;101854.88;4941643;28;20039;-88
2023/08/16 07:26:12;;;;;;;8.90;3.85;;;;;;;20.52;84.31;101866.97;4933910;28;20035;-89
2023/08/16 07:28:41;;;;;;;8.55;4.00;;;;;;;20.64;84.87;101866.88;4974979;28;20055;-89
2023/08/16 07:31:06;;;;;;;5.85;3.72;;;;;;;20.82;83.58;101866.53;4957736;28;20073;-89
2023/08/16 07:33:32;;;;;;;8.20;4.33;;;;;;;20.85;83.02;101867.94;4957501;28;20468;-88
2023/08/16 07:36:02;;;;;;;4.90;3.90;;;;;;;20.90;82.55;101861.66;4941618;28;20073;-89
2023/08/16 07:38:30;;;;;;;5.88;3.63;;;;;;;20.95;81.78;101862.53;4941308;28;20672;-88
2023/08/16 07:40:55;;;;;;;5.63;3.30;;;;;;;21.09;81.74;101862.94;4957429;28;20034;-88
2023/08/16 07:43:21;;;;;;;6.40;3.00;;;;;;;21.33;80.97;101868.09;4957509;28;20041;-88
2023/08/16 07:45:52;;;;;;;7.70;3.07;;;;;;;21.63;80.31;101869.47;4957965;28;20035;-88
2023/08/16 07:48:20;;;;;;;4.65;3.03;;;;;;;21.84;77.81;101878.72;4956918;28;20086;-89
2023/08/16 07:50:46;;;;;;;8.43;3.60;;;;;;;22.11;77.61;101883.31;4957267;28;20031;-89
2023/08/16 07:53:12;;;;;;;10.63;3.00;;;;;;;22.29;76.34;101874.53;4974622;28;20081;-88
2023/08/16 07:55:38;;;;;;;2.70;2.05;;;;;;;22.40;73.81;101879.03;4956854;28;20138;-89
2023/08/16 07:58:03;;;;;;;5.03;2.17;;;;;;;22.36;71.89;101872.38;4957215;28;20027;-89
2023/08/16 08:00:32;;;;;;;3.30;2.20;;;;;;;22.31;71.42;101875.13;4957290;28;20034;-88
2023/08/16 08:02:58;;;;;;;3.42;2.20;;;;;;;22.24;71.50;101875.34;4957060;28;20060;-89
2023/08/16 08:05:24;;;;;;;4.05;1.92;;;;;;;22.21;71.58;101883.34;4957273;28;20126;-88
2023/08/16 08:07:51;;;;;;;3.63;2.00;;;;;;;22.27;72.21;101889.75;4957090;28;20455;-89
2023/08/16 08:10:20;;;;;;;3.83;2.10;;;;;;;22.31;71.93;101891.69;4958501;28;20285;-89
2023/08/16 08:12:46;;;;;;;4.45;2.10;;;;;;;22.31;70.17;101890.84;4974559;28;20039;-88
2023/08/16 08:15:11;;;;;;;5.95;2.00;;;;;;;22.19;69.85;101886.38;4974552;28;20484;-89
2023/08/16 08:17:37;;;;;;;4.07;2.20;;;;;;;22.15;70.80;101896.31;4960564;28;20141;-89
2023/08/16 08:20:04;;;;;;;6.78;2.10;;;;;;;22.06;70.50;101895.16;4960823;28;20031;-89
2023/08/16 08:22:30;;;;;;;5.97;1.80;;;;;;;22.09;71.28;101900.16;4978147;28;20028;-89
2023/08/16 08:24:55;;;;;;;6.53;2.20;;;;;;;22.13;70.82;101893.00;4961175;28;20118;-88
2023/08/16 08:27:20;;;;;;;5.60;2.53;;;;;;;22.23;70.13;101893.06;4978215;28;20022;-88
2023/08/16 08:29:48;;;;;;;8.87;2.20;;;;;;;22.29;69.57;101888.34;4978074;28;20448;-89
2023/08/16 08:32:14;;;;;;;4.47;2.45;;;;;;;22.40;69.24;101895.63;4977756;28;20391;-88
2023/08/16 08:34:39;;;;;;;4.17;2.27;;;;;;;22.58;68.57;101897.06;4960842;28;20030;-89
2023/08/16 08:37:07;;;;;;;5.17;1.97;;;;;;;22.86;67.88;101894.13;4928749;28;20026;-89
2023/08/16 08:39:33;;;;;;;5.25;1.98;;;;;;;23.27;66.81;101899.75;4945383;28;20033;-89
2023/08/16 08:42:01;;;;;;;5.57;2.20;;;;;;;23.67;64.48;101902.81;4944752;28;20382;-89
2023/08/16 08:44:26;;;;;;;7.50;2.88;;;;;;;24.01;63.65;101893.91;4960386;28;20030;-89
2023/08/16 08:46:52;;;;;;;6.50;3.13;;;;;;;24.22;62.31;101892.72;4978067;28;20065;-88
2023/08/16 08:49:25;;;;;;;8.60;2.63;;;;;;;24.42;62.75;101902.06;4960342;28;20035;-89
2023/08/16 08:51:51;;;;;;;7.67;3.13;;;;;;;24.67;60.79;101901.13;4943965;28;20056;-89
2023/08/16 08:54:17;;;;;;;4.95;2.30;;;;;;;24.83;59.95;101899.09;4960025;28;20464;-89
2023/08/16 08:56:44;;;;;;;5.77;2.40;;;;;;;25.03;60.75;101909.25;4959866;28;20069;-89
2023/08/16 08:59:11;;;;;;;6.60;2.20;;;;;;;25.20;59.80;101901.38;4977238;28;20063;-89
2023/08/16 09:01:40;;;;;;;5.00;2.35;;;;;;;25.43;58.94;101914.84;4960269;28;20030;-89
2023/08/16 09:04:10;;;;;;;5.07;2.03;;;;;;;25.63;58.42;101908.25;4960281;28;20462;-89
2023/08/16 09:06:36;;;;;;;5.25;1.88;;;;;;;25.66;57.75;101905.75;4959688;28;20031;-89
2023/08/16 09:09:04;;;;;;;5.23;1.90;;;;;;;25.80;57.31;101905.06;4960073;28;20117;-88
2023/08/16 09:11:30;;;;;;;4.40;2.10;;;;;;;25.95;56.35;101904.88;4959785;28;20412;-89
2023/08/16 09:13:56;;;;;;;4.67;2.67;;;;;;;26.16;55.93;101907.47;4959711;28;20042;-89
2023/08/16 09:16:22;;;;;;;3.90;2.50;;;;;;;26.31;55.65;101906.44;4959861;28;20033;-89
2023/08/16 09:18:50;;;;;;;4.27;2.30;;;;;;;26.32;54.73;101914.50;4959563;28;20506;-89
2023/08/16 09:21:24;;;;;;;3.80;2.60;;;;;;;26.33;54.22;101912.56;4944220;28;20137;-89
2023/08/16 09:24:00;;;;;;;5.45;2.70;;;;;;;26.27;56.34;101904.25;4959980;28;20069;-89
2023/08/16 09:26:32;;;;;;;3.88;2.20;;;;;;;26.48;54.77;101908.75;4959560;28;20035;-89
2023/08/16 09:29:08;;;;;;;3.33;2.33;;;;;;;26.68;54.77;101908.53;4958655;28;20046;-89
2023/08/16 09:31:38;;;;;;;3.88;2.40;;;;;;;26.85;54.59;101916.34;4959552;28;20037;-89
2023/08/16 09:34:05;;;;;;;7.03;3.42;;;;;;;27.11;53.52;101914.00;4959355;28;20022;-89
2023/08/16 09:36:30;;;;;;;4.38;3.10;;;;;;;27.12;52.76;101903.69;4959174;28;20062;-89
2023/08/16 09:39:01;;;;;;;5.00;2.73;;;;;;;27.31;53.12;101907.28;4976843;28;20074;-89
2023/08/16 09:41:27;;;;;;;7.22;3.10;;;;;;;27.36;52.19;101908.34;4959262;28;20031;-89
2023/08/16 09:44:12;;;;;;;8.02;3.22;;;;;;;27.54;52.58;101906.66;4959622;28;20477;-89
2023/08/16 09:46:38;;;;;;;8.60;3.23;;;;;;;27.66;51.80;101905.03;4959696;28;20040;-89
2023/08/16 09:49:10;;;;;;;5.18;3.00;;;;;;;28.02;51.17;101905.53;4959038;28;20386;-89
2023/08/16 09:51:43;;;;;;;8.48;2.85;;;;;;;28.25;50.41;101901.72;4960058;28;20049;-89
2023/08/16 09:54:17;;;;;;;5.97;3.03;;;;;;;28.31;49.82;101902.44;4960158;28;20037;-90
2023/08/16 09:56:43;;;;;;;6.15;3.00;;;;;;;28.50;49.69;101902.31;4944119;28;20085;-90
2023/08/16 09:59:12;;;;;;;5.73;3.13;;;;;;;28.62;49.50;101904.59;4959797;28;20027;-89
2023/08/16 10:01:38;;;;;;;5.50;2.95;;;;;;;28.55;49.27;101909.75;4958931;28;20034;-89
2023/08/16 10:04:04;;;;;;;5.25;3.22;;;;;;;28.71;48.74;101894.34;4958653;28;20057;-89
2023/08/16 10:06:32;;;;;;;5.28;3.10;;;;;;;28.84;49.37;101901.03;4959151;28;20030;-89
2023/08/16 10:08:58;;;;;;;7.32;3.60;;;;;;;28.88;48.05;101900.09;4976172;28;20034;-89
2023/08/16 10:11:24;;;;;;;4.73;3.20;;;;;;;28.79;48.55;101889.97;4959060;28;20598;-89
2023/08/16 10:13:52;;;;;;;5.70;3.30;;;;;;;28.82;48.32;101892.97;4958986;28;20027;-89
2023/08/16 10:16:21;;;;;;;5.63;2.70;;;;;;;28.90;49.18;101891.38;4958667;28;20394;-89
2023/08/16 10:18:47;;;;;;;6.15;3.00;;;;;;;28.98;47.22;101887.84;4958295;28;20460;-90
2023/08/16 10:21:17;;;;;;;7.07;3.10;;;;;;;28.85;47.69;101897.94;4958909;28;20046;-89
2023/08/16 10:23:44;;;;;;;5.65;3.50;;;;;;;28.93;48.47;101898.31;4958633;28;20062;-89
2023/08/16 10:26:19;;;;;;;7.55;3.40;;;;;;;29.00;48.47;101898.72;4958554;28;20038;-89
2023/08/16 10:28:52;;;;;;;6.78;3.35;;;;;;;29.17;48.11;101898.84;4975745;28;20057;-90
2023/08/16 10:31:23;;;;;;;6.00;3.45;;;;;;;29.30;47.96;101896.34;4958781;28;20034;-90
2023/08/16 10:33:51;;;;;;;6.87;3.43;;;;;;;29.42;47.46;101892.97;4958466;28;20045;-89
2023/08/16 10:36:21;;;;;;;9.63;3.80;;;;;;;29.49;46.81;101896.13;4959291;28;20123;-89
2023/08/16 10:38:56;;;;;;;5.80;3.53;;;;;;;29.84;47.22;101891.59;4957485;28;20045;-89
2023/08/16 10:41:25;;;;;;;4.72;3.75;;;;;;;30.12;45.58;101884.94;4958317;28;20031;-89
2023/08/16 10:43:54;;;;;;;5.50;3.33;;;;;;;30.51;45.60;101892.47;4958176;28;20039;-89
2023/08/16 10:46:35;;;;;;;11.23;3.97;;;;;;;30.86;45.67;101888.91;4975370;28;20124;-90
2023/08/16 10:49:11;;;;;;;9.93;4.57;;;;;;;31.00;44.33;101883.97;4975233;28;20103;-90
2023/08/16 10:51:52;;;;;;;10.60;3.65;;;;;;;31.09;44.55;101889.56;4958235;28;20039;-89
2023/08/16 10:54:17;;;;;;;5.93;4.00;;;;;;;31.19;43.96;101885.59;4975474;28;20037;-90
2023/08/16 10:56:44;;;;;;;5.03;3.60;;;;;;;31.02;43.81;101878.88;4957711;28;20027;-89
2023/08/16 10:59:14;;;;;;;5.05;3.75;;;;;;;30.93;44.01;101881.63;4958355;28;20030;-90
2023/08/16 11:01:50;;;;;;;5.88;3.65;;;;;;;30.60;44.94;101887.69;4975067;28;20070;-89
2023/08/16 11:04:19;;;;;;;7.20;3.60;;;;;;;30.82;43.31;101882.31;4957667;28;20023;-89
2023/08/16 11:06:51;;;;;;;4.57;3.37;;;;;;;30.91;42.72;101877.50;4957848;28;20055;-90
2023/08/16 11:09:16;;;;;;;6.90;3.90;;;;;;;31.06;42.30;101893.03;4957655;28;20128;-89
2023/08/16 11:11:48;;;;;;;8.93;3.50;;;;;;;31.28;42.76;101886.41;4941981;28;20125;-89
2023/08/16 11:14:16;;;;;;;5.55;3.20;;;;;;;31.42;41.89;101887.06;4957653;28;20023;-89
2023/08/16 11:16:41;;;;;;;6.07;3.42;;;;;;;31.71;41.68;101879.88;4957672;28;20050;-90
2023/08/16 11:19:08;;;;;;;5.80;3.17;;;;;;;32.31;40.26;101885.59;4957431;28;20093;-89
2023/08/16 11:21:46;;;;;;;;;;;;;;;;;;;;;